createdAt,value
2019-04-21T00:00:35.351Z,1020.34
2019-04-21T00:01:38.767Z,1020.32
2019-04-21T00:02:37.756Z,1020.31
2019-04-21T00:03:40.704Z,1020.30
2019-04-21T00:04:46.862Z,1020.29
2019-04-21T00:05:52.927Z,1020.29
2019-04-21T00:07:01.243Z,1020.23
2019-04-21T00:07:50.713Z,1020.27
2019-04-21T00:08:56.283Z,1020.25
2019-04-21T00:11:59.864Z,1020.26
2019-04-21T00:12:51.782Z,1020.26
2019-04-21T00:13:49.615Z,1020.29
2019-04-21T00:14:46.255Z,1020.29
2019-04-21T00:15:40.636Z,1020.29
2019-04-21T00:16:43.226Z,1020.31
2019-04-21T00:17:35.022Z,1020.31
2019-04-21T00:18:40.860Z,1020.27
2019-04-21T00:20:42.454Z,1020.29
2019-04-21T00:21:40.415Z,1020.30
2019-04-21T00:24:46.208Z,1020.27
2019-04-21T00:25:45.850Z,1020.26
2019-04-21T00:26:55.673Z,1020.21
2019-04-21T00:27:51.968Z,1020.21
2019-04-21T00:28:59.497Z,1020.21
2019-04-21T00:29:56.943Z,1020.22
2019-04-21T00:31:45.809Z,1020.19
2019-04-21T00:32:46.323Z,1020.20
2019-04-21T00:33:37.099Z,1020.18
2019-04-21T00:34:34.296Z,1020.19
2019-04-21T00:35:41.378Z,1020.15
2019-04-21T00:36:44.172Z,1020.15
2019-04-21T00:37:53.462Z,1020.16
2019-04-21T00:40:56.646Z,1020.11
2019-04-21T00:41:54.332Z,1020.09
2019-04-21T00:42:48.861Z,1020.11
2019-04-21T00:43:44.742Z,1020.07
2019-04-21T00:44:47.300Z,1020.06
2019-04-21T00:45:44.676Z,1020.09
2019-04-21T00:46:48.854Z,1020.05
2019-04-21T00:47:52.927Z,1020.02
2019-04-21T00:48:53.578Z,1020.01
2019-04-21T00:49:56.540Z,1020.01
2019-04-21T00:51:14.592Z,1020.04
2019-04-21T00:52:04.019Z,1020.05
2019-04-21T00:54:02.382Z,1020.02
2019-04-21T00:54:58.557Z,1020.03
2019-04-21T00:55:56.176Z,1019.97
2019-04-21T00:56:56.741Z,1019.98
2019-04-21T00:58:00.393Z,1019.95
2019-04-21T00:58:53.732Z,1019.95
2019-04-21T00:59:54.363Z,1019.90
2019-04-21T01:00:51.378Z,1019.91
2019-04-21T01:01:57.980Z,1019.92
2019-04-21T01:02:57.597Z,1019.88
2019-04-21T01:04:00.254Z,1019.89
2019-04-21T01:05:00.003Z,1019.90
2019-04-21T01:06:56.183Z,1019.87
2019-04-21T01:07:50.712Z,1019.86
2019-04-21T01:08:55.056Z,1019.84
2019-04-21T01:09:49.058Z,1019.80
2019-04-21T01:10:49.278Z,1019.80
2019-04-21T01:11:59.616Z,1019.77
2019-04-21T01:12:54.676Z,1019.74
2019-04-21T01:14:01.040Z,1019.77
2019-04-21T01:14:56.101Z,1019.76
2019-04-21T01:15:53.330Z,1019.78
2019-04-21T01:16:58.182Z,1019.77
2019-04-21T01:17:54.632Z,1019.74
2019-04-21T01:18:49.319Z,1019.73
2019-04-21T01:19:47.036Z,1019.76
2019-04-21T01:21:31.937Z,1019.74
2019-04-21T01:22:31.913Z,1019.75
2019-04-21T01:23:33.641Z,1019.73
2019-04-21T01:24:36.131Z,1019.73
2019-04-21T01:25:40.449Z,1019.71
2019-04-21T01:26:44.898Z,1019.72
2019-04-21T01:27:50.728Z,1019.74
2019-04-21T01:29:53.355Z,1019.70
2019-04-21T01:30:55.368Z,1019.73
2019-04-21T01:31:51.684Z,1019.72
2019-04-21T01:33:50.602Z,1019.74
2019-04-21T01:34:51.622Z,1019.69
2019-04-21T01:35:48.462Z,1019.73
2019-04-21T01:36:51.411Z,1019.68
2019-04-21T01:38:10.993Z,1019.70
2019-04-21T01:38:58.331Z,1019.69
2019-04-21T01:40:52.954Z,1019.68
2019-04-21T01:41:53.344Z,1019.66
2019-04-21T01:42:53.935Z,1019.65
2019-04-21T01:43:53.452Z,1019.63
2019-04-21T01:44:53.530Z,1019.66
2019-04-21T01:45:48.668Z,1019.61
2019-04-21T01:46:49.041Z,1019.62
2019-04-21T01:47:46.452Z,1019.60
2019-04-21T01:48:45.944Z,1019.62
2019-04-21T01:49:43.177Z,1019.60
2019-04-21T01:50:51.034Z,1019.55
2019-04-21T01:52:05.533Z,1019.55
2019-04-21T01:53:14.701Z,1019.59
2019-04-21T01:53:59.570Z,1019.60
2019-04-21T01:54:55.215Z,1019.58
2019-04-21T01:55:54.387Z,1019.60
2019-04-21T01:56:51.346Z,1019.59
2019-04-21T01:57:51.240Z,1019.54
2019-04-21T01:58:42.900Z,1019.58
2019-04-21T01:59:47.352Z,1019.55
2019-04-21T02:00:45.571Z,1019.55
2019-04-21T02:01:54.161Z,1019.55
2019-04-21T02:03:58.270Z,1019.55
2019-04-21T02:04:57.960Z,1019.58
2019-04-21T02:06:00.059Z,1019.56
2019-04-21T02:06:50.426Z,1019.55
2019-04-21T02:07:49.455Z,1019.55
2019-04-21T02:08:49.300Z,1019.54
2019-04-21T02:09:49.211Z,1019.49
2019-04-21T02:10:54.915Z,1019.52
2019-04-21T02:11:56.755Z,1019.50
2019-04-21T02:12:50.895Z,1019.53
2019-04-21T02:15:00.759Z,1019.47
2019-04-21T02:15:55.527Z,1019.48
2019-04-21T02:16:54.094Z,1019.50
2019-04-21T02:17:57.500Z,1019.46
2019-04-21T02:18:52.973Z,1019.47
2019-04-21T02:19:45.847Z,1019.43
2019-04-21T02:20:43.461Z,1019.44
2019-04-21T02:21:46.314Z,1019.44
2019-04-21T02:23:06.086Z,1019.43
2019-04-21T02:24:17.119Z,1019.41
2019-04-21T02:24:56.752Z,1019.41
2019-04-21T02:26:55.917Z,1019.43
2019-04-21T02:27:57.779Z,1019.35
2019-04-21T02:28:55.842Z,1019.34
2019-04-21T02:29:55.623Z,1019.35
2019-04-21T02:31:05.965Z,1019.31
2019-04-21T02:32:01.869Z,1019.32
2019-04-21T02:33:58.621Z,1019.31
2019-04-21T02:35:14.623Z,1019.25
2019-04-21T02:36:15.096Z,1019.28
2019-04-21T02:37:19.571Z,1019.27
2019-04-21T02:39:08.374Z,1019.25
2019-04-21T02:40:05.095Z,1019.26
2019-04-21T02:43:07.512Z,1019.27
2019-04-21T02:44:59.865Z,1019.30
2019-04-21T02:46:10.562Z,1019.26
2019-04-21T02:49:07.180Z,1019.26
2019-04-21T02:50:52.956Z,1019.20
2019-04-21T02:52:01.589Z,1019.21
2019-04-21T02:53:07.116Z,1019.19
2019-04-21T02:54:34.069Z,1019.17
2019-04-21T02:55:02.345Z,1019.18
2019-04-21T02:56:00.709Z,1019.17
2019-04-21T02:57:04.672Z,1019.13
2019-04-21T02:58:07.550Z,1019.12
2019-04-21T02:58:59.394Z,1019.10
2019-04-21T03:01:03.306Z,1019.09
2019-04-21T03:02:17.225Z,1019.06
2019-04-21T03:03:06.429Z,1019.05
2019-04-21T03:04:00.688Z,1018.99
2019-04-21T03:05:09.261Z,1018.98
2019-04-21T03:05:58.635Z,1018.96
2019-04-21T03:07:11.404Z,1018.94
2019-04-21T03:08:14.360Z,1018.92
2019-04-21T03:08:59.085Z,1018.89
2019-04-21T03:10:02.315Z,1018.93
2019-04-21T03:11:05.299Z,1018.91
2019-04-21T03:13:06.060Z,1018.85
2019-04-21T03:14:14.024Z,1018.87
2019-04-21T03:16:09.796Z,1018.84
2019-04-21T03:17:03.453Z,1018.84
2019-04-21T03:18:12.641Z,1018.82
2019-04-21T03:19:06.807Z,1018.85
2019-04-21T03:20:03.110Z,1018.80
2019-04-21T03:21:10.869Z,1018.79
2019-04-21T03:22:05.201Z,1018.78
2019-04-21T03:25:21.367Z,1018.79
2019-04-21T03:26:20.703Z,1018.82
2019-04-21T03:27:09.831Z,1018.74
2019-04-21T03:28:08.286Z,1018.78
2019-04-21T03:30:01.027Z,1018.74
2019-04-21T03:31:24.997Z,1018.74
2019-04-21T03:35:33.988Z,1018.71
2019-04-21T03:38:59.139Z,1018.70
2019-04-21T03:40:05.170Z,1018.67
2019-04-21T03:42:57.159Z,1018.69
2019-04-21T03:43:59.314Z,1018.68
2019-04-21T03:48:05.126Z,1018.67
2019-04-21T03:49:02.336Z,1018.64
2019-04-21T03:50:07.122Z,1018.65
2019-04-21T03:50:56.307Z,1018.65
2019-04-21T03:52:03.348Z,1018.69
2019-04-21T03:57:10.954Z,1018.63
2019-04-21T03:59:12.289Z,1018.64
2019-04-21T04:00:06.286Z,1018.64
2019-04-21T04:01:04.241Z,1018.67
2019-04-21T04:02:10.716Z,1018.64
2019-04-21T04:03:13.432Z,1018.66
2019-04-21T04:05:07.249Z,1018.61
2019-04-21T04:10:06.485Z,1018.58
2019-04-21T04:11:12.040Z,1018.56
2019-04-21T04:11:58.355Z,1018.55
2019-04-21T04:12:57.719Z,1018.53
2019-04-21T04:14:03.858Z,1018.56
2019-04-21T04:14:50.210Z,1018.52
2019-04-21T04:16:06.076Z,1018.54
2019-04-21T04:17:56.419Z,1018.53
2019-04-21T04:21:03.580Z,1018.51
2019-04-21T04:23:15.045Z,1018.51
2019-04-21T04:24:13.019Z,1018.50
2019-04-21T04:25:07.444Z,1018.51
2019-04-21T04:26:02.350Z,1018.55
2019-04-21T04:27:08.018Z,1018.55
2019-04-21T04:33:01.232Z,1018.53
2019-04-21T04:34:04.517Z,1018.52
2019-04-21T04:35:03.272Z,1018.51
2019-04-21T04:37:59.982Z,1018.49
2019-04-21T04:39:04.048Z,1018.51
2019-04-21T04:40:00.520Z,1018.49
2019-04-21T04:42:04.863Z,1018.47
2019-04-21T04:42:55.628Z,1018.50
2019-04-21T04:44:04.875Z,1018.50
2019-04-21T04:45:08.315Z,1018.44
2019-04-21T04:47:05.843Z,1018.47
2019-04-21T04:49:53.473Z,1018.48
2019-04-21T04:52:09.738Z,1018.49
2019-04-21T04:53:03.506Z,1018.48
2019-04-21T04:53:51.198Z,1018.47
2019-04-21T04:56:01.802Z,1018.48
2019-04-21T04:58:04.699Z,1018.55
2019-04-21T05:02:14.971Z,1018.54
2019-04-21T05:03:58.013Z,1018.53
2019-04-21T05:06:10.674Z,1018.48
2019-04-21T05:07:03.531Z,1018.47
2019-04-21T05:08:03.308Z,1018.46
2019-04-21T05:10:05.801Z,1018.48
2019-04-21T05:11:07.896Z,1018.47
2019-04-21T05:12:12.020Z,1018.46
2019-04-21T05:14:03.000Z,1018.46
2019-04-21T05:16:02.187Z,1018.48
2019-04-21T05:16:55.149Z,1018.50
2019-04-21T05:19:06.466Z,1018.48
2019-04-21T05:21:04.047Z,1018.50
2019-04-21T05:22:14.174Z,1018.49
2019-04-21T05:22:58.148Z,1018.50
2019-04-21T05:23:48.545Z,1018.51
2019-04-21T05:24:44.179Z,1018.52
2019-04-21T05:25:41.516Z,1018.56
2019-04-21T05:27:44.823Z,1018.54
2019-04-21T05:28:37.050Z,1018.51
2019-04-21T05:29:55.653Z,1018.53
2019-04-21T05:30:48.965Z,1018.51
2019-04-21T05:31:49.629Z,1018.51
2019-04-21T05:32:56.919Z,1018.53
2019-04-21T05:33:44.893Z,1018.56
2019-04-21T05:34:42.980Z,1018.57
2019-04-21T05:36:46.034Z,1018.53
2019-04-21T05:38:43.623Z,1018.52
2019-04-21T05:39:42.330Z,1018.48
2019-04-21T05:40:39.876Z,1018.52
2019-04-21T05:41:37.306Z,1018.52
2019-04-21T05:42:39.863Z,1018.52
2019-04-21T05:43:46.313Z,1018.53
2019-04-21T05:45:50.002Z,1018.50
2019-04-21T05:47:02.382Z,1018.51
2019-04-21T05:47:46.272Z,1018.53
2019-04-21T05:48:48.287Z,1018.57
2019-04-21T05:49:45.209Z,1018.57
2019-04-21T05:50:46.626Z,1018.60
2019-04-21T05:51:39.888Z,1018.58
2019-04-21T05:52:40.767Z,1018.58
2019-04-21T05:53:49.282Z,1018.60
2019-04-21T05:54:50.201Z,1018.59
2019-04-21T05:55:50.961Z,1018.57
2019-04-21T05:56:53.874Z,1018.57
2019-04-21T05:57:47.380Z,1018.63
2019-04-21T05:58:54.171Z,1018.58
2019-04-21T05:59:51.649Z,1018.58
2019-04-21T06:01:47.034Z,1018.60
2019-04-21T06:02:49.553Z,1018.59
2019-04-21T06:03:49.255Z,1018.57
2019-04-21T06:05:14.480Z,1018.58
2019-04-21T06:06:45.941Z,1018.52
2019-04-21T06:07:46.153Z,1018.54
2019-04-21T06:08:46.921Z,1018.52
2019-04-21T06:09:51.393Z,1018.50
2019-04-21T06:10:52.388Z,1018.52
2019-04-21T06:11:59.813Z,1018.51
2019-04-21T06:12:51.021Z,1018.53
2019-04-21T06:13:58.398Z,1018.52
2019-04-21T06:14:52.117Z,1018.51
2019-04-21T06:16:54.490Z,1018.51
2019-04-21T06:17:54.992Z,1018.51
2019-04-21T06:18:53.172Z,1018.52
2019-04-21T06:19:49.618Z,1018.56
2019-04-21T06:20:46.670Z,1018.52
2019-04-21T06:21:45.520Z,1018.55
2019-04-21T06:22:53.248Z,1018.53
2019-04-21T06:23:46.570Z,1018.52
2019-04-21T06:25:14.581Z,1018.52
2019-04-21T06:27:46.101Z,1018.49
2019-04-21T06:29:02.787Z,1018.49
2019-04-21T06:29:50.128Z,1018.47
2019-04-21T06:32:12.711Z,1018.42
2019-04-21T06:32:49.048Z,1018.42
2019-04-21T06:35:07.160Z,1018.43
2019-04-21T06:35:58.813Z,1018.41
2019-04-21T06:36:47.474Z,1018.40
2019-04-21T06:37:49.149Z,1018.44
2019-04-21T06:38:59.696Z,1018.40
2019-04-21T06:40:03.281Z,1018.41
2019-04-21T06:40:48.388Z,1018.42
2019-04-21T06:41:58.520Z,1018.37
2019-04-21T06:42:53.897Z,1018.32
2019-04-21T06:44:53.791Z,1018.37
2019-04-21T06:45:52.681Z,1018.36
2019-04-21T06:46:45.923Z,1018.32
2019-04-21T06:47:53.967Z,1018.27
2019-04-21T06:48:49.774Z,1018.28
2019-04-21T06:51:43.325Z,1018.17
2019-04-21T06:53:54.510Z,1018.22
2019-04-21T06:54:50.262Z,1018.20
2019-04-21T06:55:44.077Z,1018.17
2019-04-21T06:56:47.915Z,1018.17
2019-04-21T06:57:50.074Z,1018.17
2019-04-21T06:58:48.072Z,1018.17
2019-04-21T06:59:43.429Z,1018.15
2019-04-21T07:00:41.123Z,1018.14
2019-04-21T07:01:48.789Z,1018.09
2019-04-21T07:02:54.917Z,1018.05
2019-04-21T07:03:55.486Z,1018.08
2019-04-21T07:04:50.443Z,1018.11
2019-04-21T07:05:52.098Z,1018.10
2019-04-21T07:06:51.655Z,1018.09
2019-04-21T07:07:54.912Z,1018.08
2019-04-21T07:09:52.687Z,1018.08
2019-04-21T07:10:43.537Z,1018.07
2019-04-21T07:11:44.990Z,1018.06
2019-04-21T07:12:48.270Z,1018.02
2019-04-21T07:13:50.969Z,1018.05
2019-04-21T07:14:43.792Z,1018.04
2019-04-21T07:15:43.941Z,1018.04
2019-04-21T07:16:50.880Z,1018.06
2019-04-21T07:17:45.716Z,1018.06
2019-04-21T07:18:53.776Z,1018.06
2019-04-21T07:20:50.446Z,1018.10
2019-04-21T07:22:50.972Z,1018.18
2019-04-21T07:23:47.218Z,1018.26
2019-04-21T07:24:42.807Z,1018.30
2019-04-21T07:25:48.039Z,1018.33
2019-04-21T07:26:44.516Z,1018.41
2019-04-21T07:28:47.918Z,1018.43
2019-04-21T07:29:47.468Z,1018.49
2019-04-21T07:31:54.379Z,1018.65
2019-04-21T07:32:49.425Z,1018.61
2019-04-21T07:33:54.318Z,1018.71
2019-04-21T07:34:45.919Z,1018.75
2019-04-21T07:35:46.086Z,1018.88
2019-04-21T07:36:52.634Z,1018.99
2019-04-21T07:38:41.161Z,1019.15
2019-04-21T07:39:46.560Z,1019.18
2019-04-21T07:40:38.888Z,1019.28
2019-04-21T07:42:39.986Z,1019.37
2019-04-21T07:43:40.946Z,1019.42
2019-04-21T07:44:35.009Z,1019.50
2019-04-21T07:45:40.165Z,1019.51
2019-04-21T07:46:38.054Z,1019.56
2019-04-21T07:47:39.640Z,1019.59
2019-04-21T07:48:46.172Z,1019.61
2019-04-21T07:49:46.706Z,1019.69
2019-04-21T07:50:46.905Z,1019.72
2019-04-21T07:51:47.746Z,1019.71
2019-04-21T07:52:49.290Z,1019.77
2019-04-21T07:53:51.318Z,1019.83
2019-04-21T07:54:55.479Z,1019.90
2019-04-21T07:56:30.830Z,1019.91
2019-04-21T07:57:37.559Z,1019.97
2019-04-21T07:58:49.054Z,1020.03
2019-04-21T07:59:55.137Z,1020.07
2019-04-21T08:01:45.332Z,1020.27
2019-04-21T08:02:40.317Z,1020.43
2019-04-21T08:03:46.764Z,1020.78
2019-04-21T08:04:55.842Z,1021.79
2019-04-21T08:05:45.745Z,1023.56
2019-04-21T08:06:46.467Z,1025.17
2019-04-21T08:07:52.158Z,1025.43
2019-04-21T08:08:41.072Z,1021.73
2019-04-21T08:09:40.944Z,1019.90
2019-04-21T08:10:39.152Z,1023.17
2019-04-21T08:11:37.084Z,1025.61
2019-04-21T08:12:37.962Z,1026.46
2019-04-21T08:14:43.528Z,1026.86
2019-04-21T08:15:44.601Z,1026.83
2019-04-21T08:17:42.618Z,1027.28
2019-04-21T08:18:48.693Z,1027.39
2019-04-21T08:20:44.149Z,1027.89
2019-04-21T08:22:46.806Z,1028.03
2019-04-21T08:23:41.590Z,1027.78
2019-04-21T08:24:47.068Z,1027.85
2019-04-21T08:25:52.927Z,1027.51
2019-04-21T08:26:44.952Z,1027.54
2019-04-21T08:27:52.621Z,1027.98
2019-04-21T08:28:49.499Z,1027.54
2019-04-21T08:29:47.744Z,1027.06
2019-04-21T08:30:43.160Z,1027.38
2019-04-21T08:32:02.890Z,1027.76
2019-04-21T08:32:52.797Z,1027.60
2019-04-21T08:34:02.019Z,1027.19
2019-04-21T08:34:49.649Z,1026.73
2019-04-21T08:36:05.952Z,1026.58
2019-04-21T08:36:40.294Z,1026.75
2019-04-21T08:37:43.346Z,1026.64
2019-04-21T08:38:45.998Z,1026.47
2019-04-21T08:39:47.861Z,1026.13
2019-04-21T08:41:48.442Z,1025.70
2019-04-21T08:42:46.647Z,1026.09
2019-04-21T08:44:49.293Z,1025.97
2019-04-21T08:45:45.331Z,1025.74
2019-04-21T08:46:50.776Z,1025.36
2019-04-21T08:48:43.918Z,1025.17
2019-04-21T08:49:45.437Z,1024.82
2019-04-21T08:50:44.156Z,1024.42
2019-04-21T08:52:04.075Z,1024.09
2019-04-21T08:53:47.647Z,1023.53
2019-04-21T08:54:44.899Z,1023.42
2019-04-21T08:55:39.741Z,1023.18
2019-04-21T08:56:41.657Z,1022.83
2019-04-21T08:57:50.670Z,1022.46
2019-04-21T08:58:41.499Z,1022.22
2019-04-21T09:00:46.832Z,1021.79
2019-04-21T09:01:47.390Z,1021.41
2019-04-21T09:02:43.135Z,1021.12
2019-04-21T09:04:41.106Z,1020.97
2019-04-21T09:05:45.639Z,1020.80
2019-04-21T09:06:54.097Z,1020.71
2019-04-21T09:07:44.732Z,1020.63
2019-04-21T09:08:39.638Z,1020.49
2019-04-21T09:10:39.191Z,1020.22
2019-04-21T09:11:40.420Z,1020.05
2019-04-21T09:13:42.611Z,1019.89
2019-04-21T09:14:41.929Z,1019.74
2019-04-21T09:15:44.058Z,1019.60
2019-04-21T09:16:39.677Z,1019.54
2019-04-21T09:20:47.367Z,1019.34
2019-04-21T09:21:45.556Z,1019.32
2019-04-21T09:22:36.632Z,1019.30
2019-04-21T09:23:39.193Z,1019.19
2019-04-21T09:24:41.027Z,1019.17
2019-04-21T09:26:34.931Z,1019.23
2019-04-21T09:27:36.627Z,1019.24
2019-04-21T09:28:37.078Z,1019.29
2019-04-21T09:30:22.090Z,1019.30
2019-04-21T09:31:28.260Z,1019.35
2019-04-21T09:32:25.211Z,1019.35
2019-04-21T09:34:30.084Z,1019.43
2019-04-21T09:35:22.704Z,1019.40
2019-04-21T09:36:25.474Z,1019.40
2019-04-21T09:37:33.000Z,1019.37
2019-04-21T09:38:29.848Z,1019.42
2019-04-21T09:39:25.558Z,1019.40
2019-04-21T09:40:30.109Z,1019.37
2019-04-21T09:42:32.288Z,1019.26
2019-04-21T09:43:30.747Z,1019.17
2019-04-21T09:45:22.950Z,1019.01
2019-04-21T09:46:23.107Z,1018.96
2019-04-21T09:47:24.806Z,1018.93
2019-04-21T09:48:24.220Z,1018.93
2019-04-21T09:49:27.021Z,1018.93
2019-04-21T09:50:22.232Z,1018.97
2019-04-21T09:51:21.867Z,1019.02
2019-04-21T09:54:27.776Z,1018.97
2019-04-21T09:55:25.049Z,1018.95
2019-04-21T09:56:31.162Z,1018.84
2019-04-21T09:58:31.070Z,1018.75
2019-04-21T09:59:28.447Z,1018.77
2019-04-21T10:00:25.255Z,1018.70
2019-04-21T10:01:31.807Z,1018.61
2019-04-21T10:02:35.653Z,1018.59
2019-04-21T10:03:23.096Z,1018.60
2019-04-21T10:04:23.095Z,1018.60
2019-04-21T10:05:21.860Z,1018.46
2019-04-21T10:06:21.989Z,1018.43
2019-04-21T10:08:22.893Z,1018.36
2019-04-21T10:09:22.075Z,1018.24
2019-04-21T10:10:22.950Z,1018.24
2019-04-21T10:11:22.608Z,1018.28
2019-04-21T10:12:21.898Z,1018.31
2019-04-21T10:13:22.987Z,1018.23
2019-04-21T10:15:23.607Z,1018.25
2019-04-21T10:16:22.260Z,1018.32
2019-04-21T10:17:21.973Z,1018.29
2019-04-21T10:18:22.109Z,1018.20
2019-04-21T10:19:23.246Z,1018.05
2019-04-21T10:20:22.364Z,1018.11
2019-04-21T10:21:24.460Z,1018.12
2019-04-21T10:22:23.243Z,1018.02
2019-04-21T10:25:22.826Z,1017.96
2019-04-21T10:30:22.496Z,1017.75
2019-04-21T10:32:25.358Z,1017.73
2019-04-21T10:33:42.338Z,1017.72
2019-04-21T10:34:23.551Z,1017.68
2019-04-21T10:35:24.337Z,1017.62
2019-04-21T10:39:22.428Z,1017.53
2019-04-21T10:40:23.370Z,1017.41
2019-04-21T10:41:23.299Z,1017.44
2019-04-21T10:42:21.944Z,1017.39
2019-04-21T10:43:22.608Z,1017.37
2019-04-21T10:44:23.143Z,1017.40
2019-04-21T10:45:23.089Z,1017.37
2019-04-21T10:47:22.794Z,1017.31
2019-04-21T10:49:22.586Z,1017.29
2019-04-21T10:50:25.179Z,1017.30
2019-04-21T10:52:22.855Z,1017.26
2019-04-21T10:53:22.913Z,1017.24
2019-04-21T10:54:22.002Z,1017.23
2019-04-21T10:55:41.058Z,1017.22
2019-04-21T10:57:22.445Z,1017.15
2019-04-21T10:58:22.681Z,1017.13
2019-04-21T10:59:22.621Z,1017.08
2019-04-21T11:00:21.788Z,1017.08
2019-04-21T11:01:23.062Z,1017.07
2019-04-21T11:02:23.031Z,1017.06
2019-04-21T11:06:22.147Z,1017.03
2019-04-21T11:07:27.530Z,1016.99
2019-04-21T11:08:25.564Z,1017.04
2019-04-21T11:09:22.057Z,1017.01
2019-04-21T11:10:23.234Z,1016.95
2019-04-21T11:11:23.897Z,1017.00
2019-04-21T11:12:21.808Z,1017.00
2019-04-21T11:13:23.002Z,1016.97
2019-04-21T11:14:23.028Z,1017.00
2019-04-21T11:15:23.231Z,1016.98
2019-04-21T11:16:21.823Z,1016.95
2019-04-21T11:18:23.958Z,1016.90
2019-04-21T11:19:22.239Z,1016.88
2019-04-21T11:20:22.794Z,1016.86
2019-04-21T11:22:23.061Z,1016.91
2019-04-21T11:23:23.030Z,1016.87
2019-04-21T11:24:23.030Z,1016.89
2019-04-21T11:26:22.096Z,1016.86
2019-04-21T11:27:22.623Z,1016.86
2019-04-21T11:28:22.882Z,1016.83
2019-04-21T11:29:23.284Z,1016.81
2019-04-21T11:30:23.236Z,1016.81
2019-04-21T11:31:22.938Z,1016.79
2019-04-21T11:32:23.351Z,1016.78
2019-04-21T11:33:22.811Z,1016.78
2019-04-21T11:34:22.996Z,1016.75
2019-04-21T11:35:21.781Z,1016.71
2019-04-21T11:36:22.326Z,1016.79
2019-04-21T11:37:21.981Z,1016.75
2019-04-21T11:38:25.305Z,1016.76
2019-04-21T11:41:23.726Z,1016.68
2019-04-21T11:42:23.783Z,1016.65
2019-04-21T11:44:24.613Z,1016.67
2019-04-21T11:45:22.234Z,1016.63
2019-04-21T11:46:22.477Z,1016.64
2019-04-21T11:47:23.075Z,1016.58
2019-04-21T11:49:22.355Z,1016.51
2019-04-21T11:50:22.970Z,1016.52
2019-04-21T11:51:22.776Z,1016.52
2019-04-21T11:53:23.177Z,1016.55
2019-04-21T11:54:22.586Z,1016.56
2019-04-21T11:55:22.911Z,1016.54
2019-04-21T11:56:23.091Z,1016.56
2019-04-21T11:57:27.842Z,1016.57
2019-04-21T11:58:21.922Z,1016.52
2019-04-21T11:59:21.842Z,1016.50
2019-04-21T12:00:22.046Z,1016.45
2019-04-21T12:02:21.967Z,1016.46
2019-04-21T12:03:22.159Z,1016.42
2019-04-21T12:05:23.580Z,1016.40
2019-04-21T12:06:28.596Z,1016.40
2019-04-21T12:07:22.935Z,1016.36
2019-04-21T12:08:30.292Z,1016.34
2019-04-21T12:09:23.087Z,1016.30
2019-04-21T12:11:25.126Z,1016.26
2019-04-21T12:12:23.199Z,1016.26
2019-04-21T12:17:23.626Z,1016.12
2019-04-21T12:18:22.251Z,1016.13
2019-04-21T12:19:22.864Z,1016.14
2019-04-21T12:20:21.939Z,1016.12
2019-04-21T12:23:22.785Z,1016.07
2019-04-21T12:24:22.402Z,1016.05
2019-04-21T12:26:22.121Z,1016.08
2019-04-21T12:27:22.252Z,1016.04
2019-04-21T12:30:23.920Z,1016.01
2019-04-21T12:31:23.443Z,1015.99
2019-04-21T12:33:22.352Z,1015.93
2019-04-21T12:34:21.918Z,1015.94
2019-04-21T12:35:21.989Z,1015.92
2019-04-21T12:36:22.219Z,1015.87
2019-04-21T12:37:22.765Z,1015.85
2019-04-21T12:38:32.104Z,1015.84
2019-04-21T12:39:23.040Z,1015.85
2019-04-21T12:40:22.476Z,1015.80
2019-04-21T12:41:22.596Z,1015.77
2019-04-21T12:42:22.872Z,1015.76
2019-04-21T12:43:21.811Z,1015.72
2019-04-21T12:44:22.581Z,1015.70
2019-04-21T12:45:22.116Z,1015.71
2019-04-21T12:49:22.159Z,1015.62
2019-04-21T12:50:21.653Z,1015.58
2019-04-21T12:51:21.948Z,1015.58
2019-04-21T12:53:23.409Z,1015.55
2019-04-21T12:54:22.031Z,1015.58
2019-04-21T12:56:23.284Z,1015.49
2019-04-21T12:57:21.660Z,1015.50
2019-04-21T12:58:21.656Z,1015.51
2019-04-21T12:59:22.046Z,1015.47
2019-04-21T13:01:23.074Z,1015.43
2019-04-21T13:02:21.978Z,1015.40
2019-04-21T13:03:23.381Z,1015.37
2019-04-21T13:04:21.873Z,1015.38
2019-04-21T13:05:21.998Z,1015.35
2019-04-21T13:06:21.962Z,1015.32
2019-04-21T13:07:21.789Z,1015.26
2019-04-21T13:08:21.788Z,1015.28
2019-04-21T13:09:22.225Z,1015.24
2019-04-21T13:10:22.208Z,1015.24
2019-04-21T13:11:21.797Z,1015.21
2019-04-21T13:12:22.859Z,1015.21
2019-04-21T13:13:23.916Z,1015.18
2019-04-21T13:14:22.126Z,1015.14
2019-04-21T13:15:21.915Z,1015.20
2019-04-21T13:16:21.676Z,1015.18
2019-04-21T13:19:23.077Z,1015.11
2019-04-21T13:20:23.203Z,1015.08
2019-04-21T13:21:22.445Z,1015.09
2019-04-21T13:22:21.753Z,1015.06
2019-04-21T13:23:23.094Z,1015.08
2019-04-21T13:24:22.075Z,1015.04
2019-04-21T13:25:21.726Z,1015.04
2019-04-21T13:26:30.561Z,1014.97
2019-04-21T13:27:22.657Z,1014.95
2019-04-21T13:28:22.790Z,1014.93
2019-04-21T13:29:21.667Z,1014.92
2019-04-21T13:30:22.317Z,1014.86
2019-04-21T13:31:22.369Z,1014.87
2019-04-21T13:32:21.739Z,1014.82
2019-04-21T13:33:22.871Z,1014.83
2019-04-21T13:34:22.211Z,1014.86
2019-04-21T13:35:23.025Z,1014.87
2019-04-21T13:36:23.348Z,1014.84
2019-04-21T13:38:32.588Z,1014.80
2019-04-21T13:40:39.788Z,1014.79
2019-04-21T13:41:40.897Z,1014.82
2019-04-21T13:42:31.408Z,1014.77
2019-04-21T13:43:23.141Z,1014.78
2019-04-21T13:44:23.299Z,1014.79
2019-04-21T13:45:21.979Z,1014.82
2019-04-21T13:46:22.811Z,1014.83
2019-04-21T13:47:22.754Z,1014.80
2019-04-21T13:48:22.404Z,1014.81
2019-04-21T13:49:21.669Z,1014.77
2019-04-21T13:50:21.778Z,1014.79
2019-04-21T13:51:22.908Z,1014.78
2019-04-21T13:52:22.783Z,1014.80
2019-04-21T13:53:22.742Z,1014.85
2019-04-21T13:54:22.046Z,1014.79
2019-04-21T13:55:21.673Z,1014.78
2019-04-21T13:56:22.716Z,1014.80
2019-04-21T13:57:22.702Z,1014.78
2019-04-21T13:58:22.122Z,1014.73
2019-04-21T13:59:22.476Z,1014.73
2019-04-21T14:00:21.782Z,1014.74
2019-04-21T14:01:23.419Z,1014.69
2019-04-21T14:02:22.652Z,1014.70
2019-04-21T14:04:23.214Z,1014.65
2019-04-21T14:05:22.401Z,1014.62
2019-04-21T14:06:22.573Z,1014.62
2019-04-21T14:07:21.976Z,1014.60
2019-04-21T14:08:23.039Z,1014.56
2019-04-21T14:09:21.934Z,1014.52
2019-04-21T14:10:21.951Z,1014.54
2019-04-21T14:11:22.963Z,1014.48
2019-04-21T14:12:23.360Z,1014.49
2019-04-21T14:13:22.557Z,1014.48
2019-04-21T14:14:21.980Z,1014.45
2019-04-21T14:15:22.171Z,1014.48
2019-04-21T14:17:22.484Z,1014.46
2019-04-21T14:18:22.653Z,1014.47
2019-04-21T14:19:21.718Z,1014.47
2019-04-21T14:20:21.687Z,1014.47
2019-04-21T14:21:23.118Z,1014.49
2019-04-21T14:22:22.200Z,1014.43
2019-04-21T14:23:32.227Z,1014.46
2019-04-21T14:25:22.026Z,1014.45
2019-04-21T14:26:22.487Z,1014.46
2019-04-21T14:27:21.741Z,1014.49
2019-04-21T14:28:22.048Z,1014.48
2019-04-21T14:29:21.768Z,1014.46
2019-04-21T14:30:22.774Z,1014.46
2019-04-21T14:31:22.254Z,1014.45
2019-04-21T14:32:22.347Z,1014.41
2019-04-21T14:35:22.885Z,1014.36
2019-04-21T14:36:22.910Z,1014.38
2019-04-21T14:37:22.618Z,1014.35
2019-04-21T14:38:22.761Z,1014.41
2019-04-21T14:39:22.849Z,1014.42
2019-04-21T14:40:24.366Z,1014.41
2019-04-21T14:41:22.174Z,1014.40
2019-04-21T14:42:22.219Z,1014.39
2019-04-21T14:43:23.674Z,1014.39
2019-04-21T14:44:22.755Z,1014.34
2019-04-21T14:45:22.958Z,1014.29
2019-04-21T14:46:21.811Z,1014.30
2019-04-21T14:47:23.036Z,1014.30
2019-04-21T14:48:23.124Z,1014.25
2019-04-21T14:49:23.506Z,1014.24
2019-04-21T14:50:22.347Z,1014.19
2019-04-21T14:51:22.984Z,1014.17
2019-04-21T14:52:23.072Z,1014.25
2019-04-21T14:53:23.393Z,1014.13
2019-04-21T14:54:22.526Z,1014.12
2019-04-21T14:56:21.724Z,1014.13
2019-04-21T14:58:23.278Z,1014.05
2019-04-21T14:59:21.679Z,1014.07
2019-04-21T15:00:22.868Z,1014.03
2019-04-21T15:01:22.000Z,1014.00
2019-04-21T15:02:22.334Z,1013.99
2019-04-21T15:03:21.753Z,1013.99
2019-04-21T15:04:22.456Z,1013.95
2019-04-21T15:05:21.812Z,1013.96
2019-04-21T15:06:21.614Z,1013.93
2019-04-21T15:07:21.763Z,1013.91
2019-04-21T15:08:21.627Z,1013.84
2019-04-21T15:10:25.325Z,1013.80